createdAt,value
2017-03-07T00:00:52.358Z,8
2017-03-07T00:02:05.663Z,8
2017-03-07T00:03:19.692Z,8
2017-03-07T00:04:33.226Z,8
2017-03-07T00:05:46.535Z,8
2017-03-07T00:06:59.878Z,12
2017-03-07T00:08:27.179Z,8
2017-03-07T00:09:40.498Z,8
2017-03-07T00:10:53.852Z,8
2017-03-07T00:12:07.178Z,8
2017-03-07T00:13:20.489Z,4
2017-03-07T00:14:34.017Z,12
2017-03-07T00:17:15.324Z,8
2017-03-07T00:18:42.616Z,12
2017-03-07T00:19:55.949Z,12
2017-03-07T00:21:08.678Z,8
2017-03-07T00:22:22.197Z,12
2017-03-07T00:23:35.512Z,8
2017-03-07T00:24:48.303Z,8
2017-03-07T00:26:01.647Z,8
2017-03-07T00:27:15.011Z,8
2017-03-07T00:28:28.359Z,12
2017-03-07T00:29:41.131Z,4
2017-03-07T00:30:54.429Z,12
2017-03-07T00:32:07.738Z,8
2017-03-07T00:33:21.073Z,8
2017-03-07T00:34:34.423Z,8
2017-03-07T00:35:47.172Z,8
2017-03-07T00:37:00.499Z,4
2017-03-07T00:38:13.840Z,8
2017-03-07T00:39:26.614Z,8
2017-03-07T00:40:54.104Z,8
2017-03-07T00:42:07.439Z,8
2017-03-07T00:43:34.165Z,8
2017-03-07T00:44:47.503Z,8
2017-03-07T00:46:00.852Z,12
2017-03-07T00:47:14.156Z,8
2017-03-07T00:48:27.480Z,8
2017-03-07T00:49:40.805Z,8
2017-03-07T00:51:08.286Z,8
2017-03-07T00:52:22.774Z,8
2017-03-07T00:53:36.090Z,12
2017-03-07T00:54:49.436Z,12
2017-03-07T00:56:03.065Z,12
2017-03-07T00:57:16.416Z,8
2017-03-07T00:58:29.743Z,8
2017-03-07T00:59:43.062Z,8
2017-03-07T01:00:56.399Z,8
2017-03-07T01:02:09.725Z,8
2017-03-07T01:03:23.066Z,8
2017-03-07T01:04:35.267Z,12
2017-03-07T01:05:47.429Z,16
2017-03-07T01:07:00.764Z,12
2017-03-07T01:08:14.125Z,8
2017-03-07T01:09:27.456Z,8
2017-03-07T01:10:40.807Z,8
2017-03-07T01:11:54.160Z,12
2017-03-07T01:13:07.476Z,8
2017-03-07T01:14:20.798Z,8
2017-03-07T01:15:34.144Z,12
2017-03-07T01:16:47.470Z,8
2017-03-07T01:18:00.798Z,8
2017-03-07T01:19:14.115Z,8
2017-03-07T01:20:27.461Z,12
2017-03-07T01:21:40.811Z,8
2017-03-07T01:22:54.153Z,8
2017-03-07T01:24:07.501Z,12
2017-03-07T01:25:20.235Z,12
2017-03-07T01:26:47.541Z,8
2017-03-07T01:28:00.881Z,8
2017-03-07T01:29:14.190Z,12
2017-03-07T01:30:27.520Z,12
2017-03-07T01:31:40.870Z,8
2017-03-07T01:32:54.163Z,12
2017-03-07T01:34:07.669Z,8
2017-03-07T01:35:21.005Z,4
2017-03-07T01:36:33.762Z,4
2017-03-07T01:37:47.797Z,4
2017-03-07T01:39:01.116Z,12
2017-03-07T01:40:14.452Z,12
2017-03-07T01:41:41.165Z,8
2017-03-07T01:42:53.938Z,8
2017-03-07T01:44:07.328Z,8
2017-03-07T01:45:19.820Z,8
2017-03-07T01:46:32.597Z,8
2017-03-07T01:47:59.901Z,8
2017-03-07T01:49:13.426Z,8
2017-03-07T01:50:26.934Z,8
2017-03-07T01:51:40.250Z,8
2017-03-07T01:52:53.581Z,8
2017-03-07T01:54:06.887Z,8
2017-03-07T01:55:19.663Z,8
2017-03-07T01:56:32.987Z,8
2017-03-07T01:57:46.313Z,8
2017-03-07T01:58:59.651Z,8
2017-03-07T02:00:12.414Z,8
2017-03-07T02:01:25.357Z,12
2017-03-07T02:02:38.697Z,12
2017-03-07T02:03:52.033Z,12
2017-03-07T02:05:05.170Z,8
2017-03-07T02:06:18.695Z,12
2017-03-07T02:07:31.451Z,12
2017-03-07T02:08:45.408Z,8
2017-03-07T02:09:58.762Z,12
2017-03-07T02:11:26.074Z,8
2017-03-07T02:12:38.830Z,8
2017-03-07T02:13:52.168Z,8
2017-03-07T02:15:05.483Z,8
2017-03-07T02:16:18.866Z,8
2017-03-07T02:17:32.248Z,8
2017-03-07T02:18:58.985Z,8
2017-03-07T02:20:26.287Z,12
2017-03-07T02:21:39.030Z,8
2017-03-07T02:22:52.674Z,12
2017-03-07T02:24:06.000Z,12
2017-03-07T02:25:33.326Z,12
2017-03-07T02:26:45.514Z,12
2017-03-07T02:27:59.047Z,8
2017-03-07T02:29:12.374Z,8
2017-03-07T02:30:25.138Z,8
2017-03-07T02:31:38.533Z,12
2017-03-07T02:32:52.195Z,12
2017-03-07T02:34:06.711Z,12
2017-03-07T02:35:20.068Z,12
2017-03-07T02:36:33.408Z,12
2017-03-07T02:37:46.726Z,8
2017-03-07T02:38:59.525Z,8
2017-03-07T02:40:12.255Z,12
2017-03-07T02:41:25.025Z,12
2017-03-07T02:42:38.333Z,8
2017-03-07T02:43:51.843Z,12
2017-03-07T02:45:05.183Z,12
2017-03-07T02:46:18.706Z,8
2017-03-07T02:47:31.499Z,12
2017-03-07T02:48:44.825Z,12
2017-03-07T02:49:58.171Z,12
2017-03-07T02:51:11.486Z,12
2017-03-07T02:52:24.815Z,12
2017-03-07T02:53:38.138Z,8
2017-03-07T02:54:51.882Z,12
2017-03-07T02:56:04.628Z,8
2017-03-07T02:57:17.997Z,12
2017-03-07T02:58:31.346Z,16
2017-03-07T02:59:58.959Z,12
2017-03-07T03:01:12.300Z,12
2017-03-07T03:02:25.071Z,8
2017-03-07T03:03:38.423Z,8
2017-03-07T03:04:51.188Z,8
2017-03-07T03:06:04.905Z,8
2017-03-07T03:07:18.232Z,12
2017-03-07T03:08:31.563Z,8
2017-03-07T03:09:44.938Z,12
2017-03-07T03:10:58.266Z,8
2017-03-07T03:12:11.595Z,8
2017-03-07T03:13:24.914Z,8
2017-03-07T03:14:38.232Z,8
2017-03-07T03:15:51.773Z,8
2017-03-07T03:17:05.090Z,8
2017-03-07T03:18:18.418Z,12
2017-03-07T03:19:31.221Z,8
2017-03-07T03:20:44.547Z,8
2017-03-07T03:21:57.891Z,12
2017-03-07T03:23:11.230Z,8
2017-03-07T03:24:24.531Z,8
2017-03-07T03:25:37.850Z,12
2017-03-07T03:26:51.152Z,8
2017-03-07T03:28:04.468Z,8
2017-03-07T03:29:17.209Z,8
2017-03-07T03:30:29.955Z,12
2017-03-07T03:31:56.675Z,8
2017-03-07T03:33:10.002Z,12
2017-03-07T03:34:23.333Z,12
2017-03-07T03:35:36.865Z,8
2017-03-07T03:36:50.162Z,8
2017-03-07T03:38:03.803Z,8
2017-03-07T03:39:16.552Z,12
2017-03-07T03:41:57.159Z,12
2017-03-07T03:43:10.484Z,8
2017-03-07T03:44:23.802Z,8
2017-03-07T03:45:37.136Z,8
2017-03-07T03:46:49.320Z,12
2017-03-07T03:48:02.873Z,8
2017-03-07T03:49:16.934Z,8
2017-03-07T03:50:29.677Z,8
2017-03-07T03:51:43.016Z,8
2017-03-07T03:52:56.320Z,12
2017-03-07T03:54:23.863Z,8
2017-03-07T03:55:36.601Z,8
2017-03-07T03:56:49.332Z,8
2017-03-07T03:58:02.653Z,8
2017-03-07T03:59:15.954Z,8
2017-03-07T04:00:29.281Z,8
2017-03-07T04:01:42.615Z,8
2017-03-07T04:02:55.926Z,8
2017-03-07T04:04:09.258Z,8
2017-03-07T04:05:22.592Z,8
2017-03-07T04:06:35.899Z,8
2017-03-07T04:07:48.647Z,8
2017-03-07T04:09:01.958Z,12
2017-03-07T04:10:15.271Z,12
2017-03-07T04:11:28.583Z,8
2017-03-07T04:12:41.866Z,8
2017-03-07T04:13:54.597Z,8
2017-03-07T04:15:07.938Z,8
2017-03-07T04:16:21.253Z,8
2017-03-07T04:17:34.561Z,8
2017-03-07T04:18:47.892Z,8
2017-03-07T04:20:01.189Z,8
2017-03-07T04:21:28.461Z,8
2017-03-07T04:22:41.779Z,4
2017-03-07T04:23:55.106Z,12
2017-03-07T04:25:08.401Z,8
2017-03-07T04:26:21.944Z,8
2017-03-07T04:27:35.238Z,8
2017-03-07T04:28:48.519Z,8
2017-03-07T04:30:01.808Z,8
2017-03-07T04:31:15.079Z,8
2017-03-07T04:32:28.372Z,4
2017-03-07T04:33:41.674Z,12
2017-03-07T04:34:54.970Z,12
2017-03-07T04:36:08.265Z,8
2017-03-07T04:37:21.816Z,8
2017-03-07T04:38:35.088Z,8
2017-03-07T04:39:48.366Z,12
2017-03-07T04:41:01.645Z,12
2017-03-07T04:42:14.926Z,8
2017-03-07T04:43:28.200Z,12
2017-03-07T04:44:41.469Z,8
2017-03-07T04:45:54.774Z,12
2017-03-07T04:47:07.471Z,8
2017-03-07T04:48:20.965Z,12
2017-03-07T04:49:33.092Z,8
2017-03-07T04:50:46.376Z,12
2017-03-07T04:51:59.649Z,12
2017-03-07T04:53:13.119Z,8
2017-03-07T04:54:26.406Z,8
2017-03-07T04:55:39.678Z,8
2017-03-07T04:56:52.983Z,12
2017-03-07T04:58:06.264Z,8
2017-03-07T04:59:19.544Z,8
2017-03-07T05:00:32.821Z,8
2017-03-07T05:01:46.103Z,8
2017-03-07T05:02:59.384Z,8
2017-03-07T05:04:12.657Z,12
2017-03-07T05:05:25.944Z,8
2017-03-07T05:06:39.223Z,8
2017-03-07T05:07:52.506Z,12
2017-03-07T05:09:05.781Z,12
2017-03-07T05:10:19.072Z,8
2017-03-07T05:11:32.335Z,8
2017-03-07T05:12:45.629Z,12
2017-03-07T05:13:58.908Z,8
2017-03-07T05:15:11.635Z,12
2017-03-07T05:16:24.918Z,12
2017-03-07T05:17:38.225Z,12
2017-03-07T05:18:51.510Z,8
2017-03-07T05:20:04.777Z,12
2017-03-07T05:21:18.080Z,8
2017-03-07T05:22:45.339Z,8
2017-03-07T05:23:58.623Z,8
2017-03-07T05:25:11.351Z,8
2017-03-07T05:26:24.972Z,12
2017-03-07T05:27:37.686Z,8
2017-03-07T05:28:50.983Z,8
2017-03-07T05:30:04.254Z,12
2017-03-07T05:31:17.733Z,8
2017-03-07T05:32:31.045Z,16
2017-03-07T05:33:44.321Z,12
2017-03-07T05:34:57.598Z,12
2017-03-07T05:36:10.893Z,12
2017-03-07T05:37:24.358Z,12
2017-03-07T05:38:37.056Z,12
2017-03-07T05:39:50.334Z,8
2017-03-07T05:41:17.587Z,8
2017-03-07T05:42:30.873Z,8
2017-03-07T05:45:11.446Z,8
2017-03-07T05:46:24.731Z,8
2017-03-07T05:47:37.995Z,8
2017-03-07T05:48:50.708Z,8
2017-03-07T05:50:03.415Z,8
2017-03-07T05:52:43.956Z,12
2017-03-07T05:54:11.214Z,12
2017-03-07T05:55:24.497Z,8
2017-03-07T05:56:51.751Z,8
2017-03-07T05:58:05.032Z,8
2017-03-07T05:59:18.306Z,8
2017-03-07T06:00:31.589Z,8
2017-03-07T06:01:44.857Z,8
2017-03-07T06:02:57.856Z,8
2017-03-07T06:04:11.255Z,8
2017-03-07T06:05:24.542Z,8
2017-03-07T06:06:37.254Z,12
2017-03-07T06:07:50.541Z,8
2017-03-07T06:09:03.831Z,12
2017-03-07T06:10:17.108Z,8
2017-03-07T06:11:30.367Z,8
2017-03-07T06:12:43.085Z,12
2017-03-07T06:13:56.567Z,8
2017-03-07T06:15:08.710Z,12
2017-03-07T06:16:21.989Z,8
2017-03-07T06:17:49.248Z,8
2017-03-07T06:19:02.534Z,8
2017-03-07T06:20:43.758Z,4
2017-03-07T06:21:57.042Z,12
2017-03-07T06:23:10.324Z,12
2017-03-07T06:24:23.926Z,12
2017-03-07T06:25:36.639Z,8
2017-03-07T06:26:49.911Z,8
2017-03-07T06:28:03.210Z,8
2017-03-07T06:29:16.490Z,8
2017-03-07T06:30:29.792Z,8
2017-03-07T06:31:43.066Z,12
2017-03-07T06:32:56.342Z,8
2017-03-07T06:34:09.619Z,12
2017-03-07T06:35:36.618Z,8
2017-03-07T06:36:49.918Z,8
2017-03-07T06:38:03.188Z,8
2017-03-07T06:39:16.474Z,8
2017-03-07T06:40:29.180Z,8
2017-03-07T06:41:42.480Z,8
2017-03-07T06:42:55.759Z,12
2017-03-07T06:44:08.468Z,12
2017-03-07T06:45:21.181Z,12
2017-03-07T06:46:33.877Z,8
2017-03-07T06:47:47.156Z,8
2017-03-07T06:49:00.453Z,8
2017-03-07T06:50:13.735Z,8
2017-03-07T06:51:27.209Z,8
2017-03-07T06:52:39.923Z,8
2017-03-07T06:53:53.187Z,8
2017-03-07T06:55:05.901Z,12
2017-03-07T06:56:19.171Z,8
2017-03-07T06:57:32.468Z,12
2017-03-07T06:58:44.596Z,8
2017-03-07T06:59:57.875Z,8
2017-03-07T07:01:11.146Z,8
2017-03-07T07:02:24.430Z,12
2017-03-07T07:03:37.136Z,8
2017-03-07T07:04:50.429Z,8
2017-03-07T07:06:17.686Z,8
2017-03-07T07:07:30.392Z,8
2017-03-07T07:08:43.681Z,8
2017-03-07T07:09:56.946Z,8
2017-03-07T07:11:10.221Z,8
2017-03-07T07:12:23.802Z,8
2017-03-07T07:13:37.072Z,8
2017-03-07T07:14:50.351Z,8
2017-03-07T07:16:03.642Z,8
2017-03-07T07:17:16.941Z,8
2017-03-07T07:18:30.460Z,8
2017-03-07T07:19:43.176Z,8
2017-03-07T07:20:56.443Z,8
2017-03-07T07:22:08.591Z,8
2017-03-07T07:23:21.874Z,8
2017-03-07T07:24:35.144Z,8
2017-03-07T07:25:47.879Z,8
2017-03-07T07:27:15.120Z,8
2017-03-07T07:28:28.713Z,8
2017-03-07T07:29:42.008Z,8
2017-03-07T07:30:55.317Z,12
2017-03-07T07:32:22.564Z,8
2017-03-07T07:33:35.836Z,8
2017-03-07T07:34:49.113Z,8
2017-03-07T07:36:02.397Z,8
2017-03-07T07:37:15.676Z,8
2017-03-07T07:38:43.220Z,8
2017-03-07T07:39:55.936Z,8
2017-03-07T07:41:09.223Z,8
2017-03-07T07:42:22.502Z,8
2017-03-07T07:43:35.780Z,8
2017-03-07T07:44:49.248Z,8
2017-03-07T07:46:02.534Z,8
2017-03-07T07:47:29.786Z,8
2017-03-07T07:48:42.810Z,8
2017-03-07T07:50:10.063Z,8
2017-03-07T07:51:23.339Z,8
2017-03-07T07:52:36.626Z,8
2017-03-07T07:53:49.926Z,8
2017-03-07T07:55:03.191Z,8
2017-03-07T07:56:16.494Z,8
2017-03-07T07:57:29.765Z,8
2017-03-07T07:58:43.046Z,12
2017-03-07T07:59:56.337Z,12
2017-03-07T08:01:09.618Z,12
2017-03-07T08:02:22.914Z,8
2017-03-07T08:03:36.198Z,8
2017-03-07T08:04:49.765Z,8
2017-03-07T08:06:03.056Z,8
2017-03-07T08:07:16.316Z,8
2017-03-07T08:08:29.593Z,8
2017-03-07T08:09:42.870Z,8
2017-03-07T08:10:56.156Z,12
2017-03-07T08:12:09.456Z,8
2017-03-07T08:13:22.748Z,8
2017-03-07T08:14:49.997Z,12
2017-03-07T08:16:03.301Z,8
2017-03-07T08:17:16.004Z,12
2017-03-07T08:18:29.298Z,8
2017-03-07T08:19:41.993Z,8
2017-03-07T08:20:55.288Z,12
2017-03-07T08:22:08.559Z,12
2017-03-07T08:23:21.839Z,8
2017-03-07T08:24:33.996Z,12
2017-03-07T08:25:47.605Z,8
2017-03-07T08:27:00.884Z,8
2017-03-07T08:28:13.588Z,12
2017-03-07T08:29:26.305Z,12
2017-03-07T08:30:39.773Z,8
2017-03-07T08:31:53.056Z,8
2017-03-07T08:33:06.323Z,12
2017-03-07T08:34:19.619Z,8
2017-03-07T08:35:32.927Z,8
2017-03-07T08:36:46.204Z,8
2017-03-07T08:39:26.736Z,8
2017-03-07T08:40:40.011Z,8
2017-03-07T08:41:53.294Z,12
2017-03-07T08:43:06.580Z,12
2017-03-07T08:44:19.866Z,8
2017-03-07T08:45:32.590Z,8
2017-03-07T08:48:27.087Z,12
2017-03-07T08:49:40.381Z,8
2017-03-07T08:50:53.080Z,8
2017-03-07T08:52:05.537Z,8
2017-03-07T08:53:18.808Z,12
2017-03-07T08:54:32.083Z,8
2017-03-07T08:55:44.787Z,8
2017-03-07T08:56:58.061Z,12
2017-03-07T08:58:10.769Z,12
2017-03-07T08:59:24.063Z,12
2017-03-07T09:00:36.792Z,12
2017-03-07T09:01:50.089Z,16
2017-03-07T09:03:03.578Z,16
2017-03-07T09:04:16.850Z,16
2017-03-07T09:05:30.117Z,16
2017-03-07T09:06:42.825Z,20
2017-03-07T09:07:56.309Z,12
2017-03-07T09:09:09.015Z,16
2017-03-07T09:10:22.281Z,16
2017-03-07T09:11:34.986Z,16
2017-03-07T09:12:48.251Z,20
2017-03-07T09:14:01.728Z,24
2017-03-07T09:15:15.018Z,20
2017-03-07T09:16:28.288Z,24
2017-03-07T09:17:41.591Z,28
2017-03-07T09:18:54.884Z,32
2017-03-07T09:20:08.178Z,36
2017-03-07T09:21:21.455Z,36
2017-03-07T09:22:34.163Z,48
2017-03-07T09:23:46.890Z,44
2017-03-07T09:25:00.184Z,48
2017-03-07T09:26:27.428Z,52
2017-03-07T09:27:40.698Z,44
2017-03-07T09:28:53.390Z,48
2017-03-07T09:30:06.963Z,52
2017-03-07T09:31:34.215Z,68
2017-03-07T09:32:47.493Z,96
2017-03-07T09:34:00.778Z,96
2017-03-07T09:35:13.475Z,80
2017-03-07T09:36:26.757Z,64
2017-03-07T09:37:40.046Z,68
2017-03-07T09:38:53.332Z,72
2017-03-07T09:40:06.060Z,76
2017-03-07T09:41:18.761Z,80
2017-03-07T09:42:32.039Z,84
2017-03-07T09:43:44.749Z,88
2017-03-07T09:44:58.018Z,96
2017-03-07T09:46:11.305Z,100
2017-03-07T09:47:24.617Z,104
2017-03-07T09:48:37.325Z,112
2017-03-07T09:49:50.036Z,116
2017-03-07T09:51:03.317Z,120
2017-03-07T09:52:16.034Z,128
2017-03-07T09:53:42.710Z,136
2017-03-07T09:54:55.988Z,144
2017-03-07T09:56:23.474Z,156
2017-03-07T09:57:36.751Z,160
2017-03-07T09:58:50.022Z,172
2017-03-07T10:00:03.293Z,180
2017-03-07T10:01:15.995Z,184
2017-03-07T10:02:29.272Z,192
2017-03-07T10:03:41.976Z,196
2017-03-07T10:04:55.275Z,200
2017-03-07T10:06:07.998Z,204
2017-03-07T10:07:21.275Z,208
2017-03-07T10:08:34.558Z,212
2017-03-07T10:09:47.285Z,224
2017-03-07T10:11:00.549Z,232
2017-03-07T10:12:13.824Z,236
2017-03-07T10:13:27.140Z,236
2017-03-07T10:14:40.431Z,236
2017-03-07T10:15:53.743Z,244
2017-03-07T10:17:07.065Z,224
2017-03-07T10:18:20.364Z,220
2017-03-07T10:19:33.077Z,216
2017-03-07T10:20:45.785Z,204
2017-03-07T10:21:59.073Z,204
2017-03-07T10:23:11.789Z,204
2017-03-07T10:24:25.095Z,196
2017-03-07T10:25:38.410Z,196
2017-03-07T10:26:51.702Z,184
2017-03-07T10:28:04.416Z,184
2017-03-07T10:29:17.705Z,184
2017-03-07T10:30:31.007Z,176
2017-03-07T10:31:43.711Z,172
2017-03-07T10:32:56.985Z,172
2017-03-07T10:34:10.273Z,172
2017-03-07T10:35:23.875Z,164
2017-03-07T10:36:37.142Z,160
2017-03-07T10:37:50.422Z,160
2017-03-07T10:39:03.706Z,184
2017-03-07T10:40:16.992Z,208
2017-03-07T10:41:30.280Z,212
2017-03-07T10:42:42.408Z,216
2017-03-07T10:43:55.701Z,172
2017-03-07T10:45:08.987Z,168
2017-03-07T10:46:22.503Z,196
2017-03-07T10:47:35.777Z,216
2017-03-07T10:48:47.935Z,212
2017-03-07T10:50:01.227Z,252
2017-03-07T10:51:13.930Z,256
2017-03-07T10:52:26.633Z,252
2017-03-07T10:53:39.949Z,264
2017-03-07T10:54:53.243Z,252
2017-03-07T10:56:06.516Z,220
2017-03-07T10:57:19.996Z,248
2017-03-07T10:58:32.709Z,288
2017-03-07T10:59:46.024Z,296
2017-03-07T11:00:59.308Z,288
2017-03-07T11:02:11.690Z,292
2017-03-07T11:03:25.048Z,288
2017-03-07T11:04:37.784Z,304
2017-03-07T11:05:51.141Z,320
2017-03-07T11:08:31.496Z,344
2017-03-07T11:09:44.458Z,324
2017-03-07T11:10:57.352Z,320
2017-03-07T11:12:10.810Z,316
2017-03-07T11:13:24.575Z,324
2017-03-07T11:16:19.156Z,356
2017-03-07T11:17:46.667Z,364
2017-03-07T11:19:00.245Z,372
2017-03-07T11:20:13.795Z,340
2017-03-07T11:21:27.395Z,300
2017-03-07T11:22:41.018Z,320
2017-03-07T11:23:54.787Z,372
2017-03-07T11:25:08.374Z,388
2017-03-07T11:26:21.711Z,352
2017-03-07T11:27:34.453Z,336
2017-03-07T11:28:47.731Z,328
2017-03-07T11:30:00.448Z,332
2017-03-07T11:31:13.754Z,328
2017-03-07T11:32:26.464Z,312
2017-03-07T11:33:53.713Z,376
2017-03-07T11:35:07.103Z,380
2017-03-07T11:36:19.848Z,376
2017-03-07T11:37:32.551Z,368
2017-03-07T11:38:44.724Z,348
2017-03-07T11:40:11.411Z,376
2017-03-07T11:41:24.725Z,412
2017-03-07T11:42:38.013Z,416
2017-03-07T11:44:04.691Z,380
2017-03-07T11:45:17.973Z,444
2017-03-07T11:46:31.276Z,524
2017-03-07T11:47:44.098Z,532
2017-03-07T11:48:56.933Z,496
2017-03-07T11:50:09.178Z,452
2017-03-07T11:51:22.643Z,460
2017-03-07T11:52:35.911Z,496
2017-03-07T11:53:48.627Z,496
2017-03-07T11:55:01.919Z,524
2017-03-07T11:56:14.961Z,548
2017-03-07T11:57:27.683Z,544
2017-03-07T11:58:40.407Z,500
2017-03-07T11:59:53.689Z,516
2017-03-07T12:01:06.970Z,540
2017-03-07T12:02:20.254Z,520
2017-03-07T12:03:33.541Z,504
2017-03-07T12:04:46.261Z,516
2017-03-07T12:06:13.822Z,548
2017-03-07T12:07:27.098Z,524
2017-03-07T12:08:39.820Z,568
2017-03-07T12:09:53.098Z,548
2017-03-07T12:11:06.399Z,528
2017-03-07T12:12:19.113Z,628
2017-03-07T12:13:31.823Z,604
2017-03-07T12:14:45.293Z,556
2017-03-07T12:15:58.588Z,548
2017-03-07T12:17:11.884Z,540
2017-03-07T12:18:24.606Z,516
2017-03-07T12:19:37.898Z,520
2017-03-07T12:20:50.647Z,504
2017-03-07T12:22:03.947Z,468
2017-03-07T12:23:17.462Z,472
2017-03-07T12:24:30.758Z,448
2017-03-07T12:25:44.032Z,444
2017-03-07T12:26:57.295Z,456
2017-03-07T12:28:10.591Z,404
2017-03-07T12:29:23.321Z,500
2017-03-07T12:32:03.955Z,660
2017-03-07T12:33:16.754Z,712
2017-03-07T12:34:30.092Z,812
2017-03-07T12:35:43.389Z,936
2017-03-07T12:36:57.277Z,1012
2017-03-07T12:38:10.576Z,1132
2017-03-07T12:39:23.874Z,1240
2017-03-07T12:40:36.596Z,1280
2017-03-07T12:41:48.739Z,1336
2017-03-07T12:43:02.015Z,1348
2017-03-07T12:44:15.297Z,1396
2017-03-07T12:45:28.600Z,1444
2017-03-07T12:46:41.866Z,1492
2017-03-07T12:47:54.035Z,1480
2017-03-07T12:49:21.282Z,1544
2017-03-07T12:50:48.553Z,1552
2017-03-07T12:52:01.826Z,1604
2017-03-07T12:53:15.103Z,1632
2017-03-07T12:54:28.599Z,1668
2017-03-07T12:55:41.308Z,1708
2017-03-07T12:57:08.566Z,1772
2017-03-07T12:58:21.862Z,1744
2017-03-07T12:59:34.874Z,1792
2017-03-07T13:00:47.624Z,1840
2017-03-07T13:02:00.924Z,1844
2017-03-07T13:03:14.243Z,1804
2017-03-07T13:04:27.738Z,1896
2017-03-07T13:05:41.018Z,1912
2017-03-07T13:06:54.322Z,1912
2017-03-07T13:08:07.604Z,2012
2017-03-07T13:09:20.338Z,1996
2017-03-07T13:12:59.429Z,1976
2017-03-07T13:14:12.213Z,1992
2017-03-07T13:15:25.885Z,2020
2017-03-07T13:16:39.809Z,2076
2017-03-07T13:17:53.226Z,2068
2017-03-07T13:19:06.567Z,2148
2017-03-07T13:20:19.864Z,2112
2017-03-07T13:21:37.625Z,2080
2017-03-07T13:22:51.145Z,2052
2017-03-07T13:24:04.432Z,2068
2017-03-07T13:25:17.755Z,2156
2017-03-07T13:26:45.246Z,2124
2017-03-07T13:27:58.595Z,2092
2017-03-07T13:29:12.104Z,2112
2017-03-07T13:30:25.414Z,2176
2017-03-07T13:31:38.741Z,2116
2017-03-07T13:32:51.504Z,2140
2017-03-07T13:34:04.801Z,2160
2017-03-07T13:35:18.112Z,2164
2017-03-07T13:36:31.406Z,2204
2017-03-07T13:37:44.707Z,2192
2017-03-07T13:38:56.869Z,2220
2017-03-07T13:40:10.211Z,2228
2017-03-07T13:41:22.355Z,2128
2017-03-07T13:42:34.512Z,2180
2017-03-07T13:43:47.026Z,2196
2017-03-07T13:44:59.242Z,2228
2017-03-07T13:46:12.764Z,2136
2017-03-07T13:48:52.239Z,2104
2017-03-07T13:50:05.575Z,2144
2017-03-07T13:51:17.759Z,2156
2017-03-07T13:52:31.608Z,2132
2017-03-07T13:53:45.655Z,1964
2017-03-07T13:55:00.529Z,1972
2017-03-07T13:56:13.355Z,1152
2017-03-07T13:57:26.650Z,2092
2017-03-07T13:58:39.666Z,1884
2017-03-07T13:59:52.953Z,2012
2017-03-07T14:01:06.247Z,1284
2017-03-07T14:02:19.549Z,2092
2017-03-07T14:04:01.086Z,2112
2017-03-07T14:05:14.389Z,2100
2017-03-07T14:06:27.129Z,2120
2017-03-07T14:07:40.425Z,2112
2017-03-07T14:09:08.019Z,2156
2017-03-07T14:10:35.305Z,2072
2017-03-07T14:11:48.583Z,2140
2017-03-07T14:13:01.346Z,2172
2017-03-07T14:14:14.846Z,2172
2017-03-07T14:15:27.562Z,2172
2017-03-07T14:16:40.872Z,2172
2017-03-07T14:17:54.162Z,2176
2017-03-07T14:19:07.489Z,2172
2017-03-07T14:20:20.778Z,2204
2017-03-07T14:21:34.068Z,2192
2017-03-07T14:22:46.822Z,2056
2017-03-07T14:24:00.146Z,2220
2017-03-07T14:25:13.221Z,2212
2017-03-07T14:26:40.495Z,2248
2017-03-07T14:27:53.827Z,2252
2017-03-07T14:29:06.541Z,2276
2017-03-07T14:30:19.271Z,2260
2017-03-07T14:31:32.588Z,2236
2017-03-07T14:34:12.601Z,2300
2017-03-07T14:35:26.086Z,2288
2017-03-07T14:36:39.389Z,2344
2017-03-07T14:39:33.395Z,2380
2017-03-07T14:40:46.994Z,2432
2017-03-07T14:42:00.302Z,2428
2017-03-07T14:43:13.625Z,1512
2017-03-07T14:44:26.373Z,2620
2017-03-07T14:45:53.084Z,1908
2017-03-07T14:47:06.402Z,2512
2017-03-07T14:48:19.715Z,2624
2017-03-07T14:49:33.037Z,2068
2017-03-07T14:50:46.331Z,2548
2017-03-07T14:51:58.700Z,2192
2017-03-07T14:53:11.513Z,2256
2017-03-07T14:54:24.277Z,1356
2017-03-07T14:55:36.441Z,2628
2017-03-07T14:58:44.951Z,2572
2017-03-07T14:59:57.703Z,1132
2017-03-07T15:01:10.449Z,828
2017-03-07T15:02:24.153Z,772
2017-03-07T15:03:51.490Z,796
2017-03-07T15:05:04.810Z,1652
2017-03-07T15:06:18.093Z,788
2017-03-07T15:07:30.808Z,948
2017-03-07T15:08:43.537Z,796
2017-03-07T15:09:56.272Z,752
2017-03-07T15:11:09.033Z,744
2017-03-07T15:12:21.772Z,724
2017-03-07T15:13:35.074Z,692
2017-03-07T15:14:47.814Z,684
2017-03-07T15:16:00.538Z,684
2017-03-07T15:17:13.298Z,692
2017-03-07T15:18:26.095Z,628
2017-03-07T15:19:39.810Z,636
2017-03-07T15:20:53.144Z,636
2017-03-07T15:22:33.827Z,600
2017-03-07T15:23:47.130Z,576
2017-03-07T15:24:59.860Z,576
2017-03-07T15:26:27.136Z,584
2017-03-07T15:27:39.861Z,576
2017-03-07T15:28:52.242Z,596
2017-03-07T15:30:19.525Z,600
2017-03-07T15:31:32.250Z,604
2017-03-07T15:32:45.019Z,656
2017-03-07T15:33:58.337Z,680
2017-03-07T15:35:11.100Z,716
2017-03-07T15:36:24.417Z,756
2017-03-07T15:37:51.693Z,692
2017-03-07T15:39:18.421Z,632
2017-03-07T15:40:31.243Z,620
2017-03-07T15:41:44.044Z,648
2017-03-07T15:42:56.817Z,644
2017-03-07T15:44:09.758Z,668
2017-03-07T15:45:22.507Z,680
2017-03-07T15:46:35.822Z,732
2017-03-07T15:47:47.414Z,688
2017-03-07T15:49:00.721Z,688
2017-03-07T15:50:13.651Z,660
2017-03-07T15:51:25.865Z,852
2017-03-07T15:52:38.643Z,1416
2017-03-07T15:53:51.975Z,992
2017-03-07T15:55:04.172Z,732
2017-03-07T15:56:16.905Z,700
2017-03-07T15:57:29.675Z,688
2017-03-07T15:58:42.415Z,720
2017-03-07T16:00:09.104Z,748
2017-03-07T16:01:21.910Z,800
2017-03-07T16:02:35.269Z,1296
2017-03-07T16:05:13.607Z,1440
2017-03-07T16:06:26.923Z,1388
2017-03-07T16:07:39.658Z,1008
2017-03-07T16:08:52.441Z,732
2017-03-07T16:10:05.284Z,648
2017-03-07T16:11:18.617Z,648
2017-03-07T16:12:31.380Z,888
2017-03-07T16:13:44.923Z,1168
2017-03-07T16:14:58.248Z,1192
2017-03-07T16:16:11.578Z,1136
2017-03-07T16:17:24.301Z,1056
2017-03-07T16:18:37.635Z,1060
2017-03-07T16:19:50.363Z,1304
2017-03-07T16:21:03.710Z,1372
2017-03-07T16:22:50.419Z,1060
2017-03-07T16:24:03.762Z,1404
2017-03-07T16:25:16.497Z,1148
2017-03-07T16:26:29.818Z,1168
2017-03-07T16:27:43.143Z,1220
2017-03-07T16:29:10.613Z,980
2017-03-07T16:30:23.393Z,848
2017-03-07T16:31:36.724Z,716
2017-03-07T16:32:49.477Z,688
2017-03-07T16:34:16.756Z,660
2017-03-07T16:35:29.520Z,612
2017-03-07T16:36:42.888Z,600
2017-03-07T16:37:55.641Z,636
2017-03-07T16:39:08.977Z,764
2017-03-07T16:40:22.298Z,936
2017-03-07T16:41:35.072Z,1072
2017-03-07T16:42:48.388Z,1128
2017-03-07T16:44:01.704Z,880
2017-03-07T16:45:14.507Z,844
2017-03-07T16:46:27.832Z,840
2017-03-07T16:47:40.666Z,860
2017-03-07T16:49:08.165Z,1028
2017-03-07T16:50:21.799Z,832
2017-03-07T16:51:34.157Z,740
2017-03-07T16:52:47.254Z,740
2017-03-07T16:54:15.183Z,792
2017-03-07T16:55:28.900Z,776
2017-03-07T16:56:55.881Z,744
2017-03-07T16:58:09.604Z,720
2017-03-07T16:59:23.346Z,728
2017-03-07T17:00:37.053Z,756
2017-03-07T17:03:17.673Z,916
2017-03-07T17:04:31.472Z,952
2017-03-07T17:05:45.001Z,912
2017-03-07T17:06:58.580Z,980
2017-03-07T17:08:12.059Z,864
2017-03-07T17:09:25.194Z,912
2017-03-07T17:10:38.086Z,1020
2017-03-07T17:11:50.297Z,1000
2017-03-07T17:13:03.631Z,980
2017-03-07T17:14:16.427Z,996
2017-03-07T17:15:30.044Z,1020
2017-03-07T17:16:43.394Z,976
2017-03-07T17:17:56.724Z,932
2017-03-07T17:19:24.054Z,868
2017-03-07T17:20:37.384Z,868
2017-03-07T17:21:50.700Z,848
2017-03-07T17:23:04.034Z,876
2017-03-07T17:24:17.423Z,928
2017-03-07T17:25:30.809Z,888
2017-03-07T17:26:44.356Z,840
2017-03-07T17:27:57.167Z,880
2017-03-07T17:29:24.557Z,976
2017-03-07T17:30:38.395Z,880
2017-03-07T17:31:51.891Z,688
2017-03-07T17:33:05.405Z,348
2017-03-07T17:34:18.911Z,264
2017-03-07T17:35:32.743Z,244
2017-03-07T17:36:46.263Z,260
2017-03-07T17:37:59.795Z,304
2017-03-07T17:39:14.558Z,408
2017-03-07T17:40:29.257Z,476
2017-03-07T17:43:10.373Z,544
2017-03-07T17:44:23.857Z,608
2017-03-07T17:45:37.402Z,848
2017-03-07T17:46:50.908Z,1092
2017-03-07T17:48:04.614Z,1096
2017-03-07T17:49:17.528Z,1072
2017-03-07T17:50:30.447Z,1016
2017-03-07T17:51:43.572Z,976
2017-03-07T17:52:57.119Z,904
2017-03-07T17:54:10.632Z,924
2017-03-07T17:55:24.155Z,852
2017-03-07T17:56:37.097Z,804